Trenton, North Carolina
Current Conditions -  °F | °C
As of 10:54 AM on Saturday 25 Oct 2014 (Local Time) from KEWN Reporting Station
Clear Clear  
Wind Chill: 65°   Ceiling: Unl
Heat Index: 65°   Visibility: 10mi
Dew Point: 47°   Wind: 0mph
Humidity: 52%   Direction: NA
Pressure: 30"   Gusts: NA
Location:  35.07°N, 77.35°W
Report Text: KEWN 251454Z 00000KT 10SM CLR 18/08 A3000 RMK AO2 SLP159 T01830083 58003
Loading
Personal Weather Stations






























Interactive Weather Map
Tropical Storm Tracking
New forecast layout! Learn more

10-Day Weather Forecast

Advertisements
Track Severe Weather on mobile